Kalona, Iowa
Current Conditions -  °F | °C
As of 9:52 AM on Tuesday 21 Oct 2014 (Local Time) from KIOW Reporting Station
Clear Clear  
Wind Chill: 11°   Ceiling: Unl
Heat Index: 11°   Visibility: 10mi
Dew Point:   Wind: 9mph
Humidity: 69%   Direction: 50°NE
Pressure: 30.21"   Gusts: NA
Location:  41.48°N, 91.71°W
Report Text: KIOW 211452Z AUTO 05008KT 10SM CLR 11/06 A3021 RMK AO2 SLP232 T01110056 51020
Loading
Personal Weather Stations






























Interactive Weather Map
Tropical Storm Tracking
New forecast layout! Learn more

10-Day Weather Forecast

Advertisements
Track Severe Weather on mobile